sensor_id;sensor_type;location;lat;lon;timestamp;P1;durP1;ratioP1;P2;durP2;ratioP2
73084;SDS011;62974;49.460;10.892;2023-05-02T00:00:02;7.47;;;4.30;;
73084;SDS011;62974;49.460;10.892;2023-05-02T00:02:30;5.97;;;3.63;;
73084;SDS011;62974;49.460;10.892;2023-05-02T00:04:58;7.18;;;4.03;;
73084;SDS011;62974;49.460;10.892;2023-05-02T00:07:26;6.13;;;3.67;;
73084;SDS011;62974;49.460;10.892;2023-05-02T00:09:54;6.35;;;3.60;;
73084;SDS011;62974;49.460;10.892;2023-05-02T00:12:21;9.40;;;4.50;;
73084;SDS011;62974;49.460;10.892;2023-05-02T00:14:49;6.50;;;4.07;;
73084;SDS011;62974;49.460;10.892;2023-05-02T00:17:17;7.00;;;3.72;;
73084;SDS011;62974;49.460;10.892;2023-05-02T00:19:45;5.20;;;3.50;;
73084;SDS011;62974;49.460;10.892;2023-05-02T00:22:12;7.45;;;3.72;;
73084;SDS011;62974;49.460;10.892;2023-05-02T00:24:41;7.78;;;4.20;;
73084;SDS011;62974;49.460;10.892;2023-05-02T00:27:09;8.10;;;3.90;;
73084;SDS011;62974;49.460;10.892;2023-05-02T00:29:36;8.68;;;3.90;;
73084;SDS011;62974;49.460;10.892;2023-05-02T00:32:04;7.72;;;4.00;;
73084;SDS011;62974;49.460;10.892;2023-05-02T00:34:32;6.63;;;3.95;;
73084;SDS011;62974;49.460;10.892;2023-05-02T00:36:59;6.28;;;3.75;;
73084;SDS011;62974;49.460;10.892;2023-05-02T00:39:27;6.75;;;3.90;;
73084;SDS011;62974;49.460;10.892;2023-05-02T00:41:59;7.10;;;3.75;;
73084;SDS011;62974;49.460;10.892;2023-05-02T00:44:27;7.10;;;3.58;;
73084;SDS011;62974;49.460;10.892;2023-05-02T00:46:55;6.38;;;3.97;;
73084;SDS011;62974;49.460;10.892;2023-05-02T00:49:22;6.72;;;4.15;;
73084;SDS011;62974;49.460;10.892;2023-05-02T00:51:50;7.22;;;4.60;;
73084;SDS011;62974;49.460;10.892;2023-05-02T00:54:19;7.10;;;3.65;;
73084;SDS011;62974;49.460;10.892;2023-05-02T00:56:47;7.22;;;3.83;;
73084;SDS011;62974;49.460;10.892;2023-05-02T00:59:15;7.05;;;3.80;;
73084;SDS011;62974;49.460;10.892;2023-05-02T01:01:52;7.13;;;3.70;;
73084;SDS011;62974;49.460;10.892;2023-05-02T01:04:29;7.55;;;3.80;;
73084;SDS011;62974;49.460;10.892;2023-05-02T01:07:13;8.15;;;3.80;;
73084;SDS011;62974;49.460;10.892;2023-05-02T01:09:56;6.72;;;3.72;;
73084;SDS011;62974;49.460;10.892;2023-05-02T01:12:36;7.22;;;4.07;;
73084;SDS011;62974;49.460;10.892;2023-05-02T01:15:10;7.13;;;3.67;;
73084;SDS011;62974;49.460;10.892;2023-05-02T01:17:42;7.95;;;4.28;;
73084;SDS011;62974;49.460;10.892;2023-05-02T01:20:12;6.70;;;3.88;;
73084;SDS011;62974;49.460;10.892;2023-05-02T01:22:42;8.40;;;4.00;;
73084;SDS011;62974;49.460;10.892;2023-05-02T01:25:13;7.45;;;4.10;;
73084;SDS011;62974;49.460;10.892;2023-05-02T01:27:50;6.68;;;3.95;;
73084;SDS011;62974;49.460;10.892;2023-05-02T01:30:25;7.63;;;3.95;;
73084;SDS011;62974;49.460;10.892;2023-05-02T01:32:56;6.25;;;3.67;;
73084;SDS011;62974;49.460;10.892;2023-05-02T01:35:25;7.10;;;3.80;;
73084;SDS011;62974;49.460;10.892;2023-05-02T01:37:54;5.82;;;3.42;;
73084;SDS011;62974;49.460;10.892;2023-05-02T01:40:24;6.78;;;3.22;;
73084;SDS011;62974;49.460;10.892;2023-05-02T01:42:52;6.07;;;3.55;;
73084;SDS011;62974;49.460;10.892;2023-05-02T01:45:21;6.05;;;3.53;;
73084;SDS011;62974;49.460;10.892;2023-05-02T01:47:51;6.20;;;3.33;;
73084;SDS011;62974;49.460;10.892;2023-05-02T01:50:20;6.40;;;3.63;;
73084;SDS011;62974;49.460;10.892;2023-05-02T01:52:52;5.93;;;3.75;;
73084;SDS011;62974;49.460;10.892;2023-05-02T01:55:21;5.90;;;3.28;;
73084;SDS011;62974;49.460;10.892;2023-05-02T01:57:51;6.03;;;3.20;;
73084;SDS011;62974;49.460;10.892;2023-05-02T02:00:22;6.70;;;3.97;;
73084;SDS011;62974;49.460;10.892;2023-05-02T02:02:53;7.03;;;3.67;;
73084;SDS011;62974;49.460;10.892;2023-05-02T02:05:23;5.97;;;3.80;;
73084;SDS011;62974;49.460;10.892;2023-05-02T02:07:51;5.85;;;3.08;;
73084;SDS011;62974;49.460;10.892;2023-05-02T02:10:19;6.50;;;3.47;;
73084;SDS011;62974;49.460;10.892;2023-05-02T02:12:48;6.30;;;3.50;;
73084;SDS011;62974;49.460;10.892;2023-05-02T02:15:20;5.78;;;3.50;;
73084;SDS011;62974;49.460;10.892;2023-05-02T02:17:56;6.05;;;3.53;;
73084;SDS011;62974;49.460;10.892;2023-05-02T02:20:26;6.43;;;3.63;;
73084;SDS011;62974;49.460;10.892;2023-05-02T02:22:55;6.88;;;3.83;;
73084;SDS011;62974;49.460;10.892;2023-05-02T02:25:24;6.82;;;3.30;;
73084;SDS011;62974;49.460;10.892;2023-05-02T02:27:53;5.60;;;3.28;;
73084;SDS011;62974;49.460;10.892;2023-05-02T02:30:20;8.02;;;3.50;;
73084;SDS011;62974;49.460;10.892;2023-05-02T02:32:48;8.07;;;4.15;;
73084;SDS011;62974;49.460;10.892;2023-05-02T02:35:17;7.70;;;4.30;;
73084;SDS011;62974;49.460;10.892;2023-05-02T02:37:45;8.23;;;3.95;;
73084;SDS011;62974;49.460;10.892;2023-05-02T02:40:18;5.97;;;3.90;;
73084;SDS011;62974;49.460;10.892;2023-05-02T02:42:53;7.45;;;4.05;;
73084;SDS011;62974;49.460;10.892;2023-05-02T02:45:29;6.95;;;3.97;;
73084;SDS011;62974;49.460;10.892;2023-05-02T02:48:04;5.72;;;3.45;;
73084;SDS011;62974;49.460;10.892;2023-05-02T02:50:42;7.60;;;4.13;;
73084;SDS011;62974;49.460;10.892;2023-05-02T02:53:19;9.32;;;4.22;;
73084;SDS011;62974;49.460;10.892;2023-05-02T02:55:54;6.78;;;3.50;;
73084;SDS011;62974;49.460;10.892;2023-05-02T02:58:27;6.63;;;3.58;;
73084;SDS011;62974;49.460;10.892;2023-05-02T03:01:03;7.03;;;3.92;;
73084;SDS011;62974;49.460;10.892;2023-05-02T03:03:34;9.38;;;4.07;;
73084;SDS011;62974;49.460;10.892;2023-05-02T03:06:04;8.48;;;4.22;;
73084;SDS011;62974;49.460;10.892;2023-05-02T03:08:37;9.15;;;4.43;;
73084;SDS011;62974;49.460;10.892;2023-05-02T03:11:05;6.90;;;4.22;;
73084;SDS011;62974;49.460;10.892;2023-05-02T03:13:33;7.75;;;4.10;;
73084;SDS011;62974;49.460;10.892;2023-05-02T03:16:15;6.22;;;3.88;;
73084;SDS011;62974;49.460;10.892;2023-05-02T03:18:57;8.88;;;4.22;;
73084;SDS011;62974;49.460;10.892;2023-05-02T03:21:26;8.30;;;4.18;;
73084;SDS011;62974;49.460;10.892;2023-05-02T03:23:57;7.03;;;4.20;;
73084;SDS011;62974;49.460;10.892;2023-05-02T03:26:25;7.53;;;3.97;;
73084;SDS011;62974;49.460;10.892;2023-05-02T03:28:52;10.50;;;4.25;;
73084;SDS011;62974;49.460;10.892;2023-05-02T03:31:20;8.38;;;4.10;;
73084;SDS011;62974;49.460;10.892;2023-05-02T03:33:51;7.97;;;4.30;;
73084;SDS011;62974;49.460;10.892;2023-05-02T03:36:19;7.75;;;3.80;;
73084;SDS011;62974;49.460;10.892;2023-05-02T03:38:48;6.55;;;3.50;;
73084;SDS011;62974;49.460;10.892;2023-05-02T03:41:16;7.28;;;3.92;;
73084;SDS011;62974;49.460;10.892;2023-05-02T03:43:46;7.00;;;4.25;;
73084;SDS011;62974;49.460;10.892;2023-05-02T03:46:13;5.45;;;3.40;;
73084;SDS011;62974;49.460;10.892;2023-05-02T03:48:41;6.75;;;3.90;;
73084;SDS011;62974;49.460;10.892;2023-05-02T03:51:10;5.50;;;3.65;;
73084;SDS011;62974;49.460;10.892;2023-05-02T03:53:38;6.78;;;3.40;;
73084;SDS011;62974;49.460;10.892;2023-05-02T03:56:07;7.70;;;4.07;;
73084;SDS011;62974;49.460;10.892;2023-05-02T03:58:34;6.72;;;3.80;;
73084;SDS011;62974;49.460;10.892;2023-05-02T04:01:02;6.82;;;3.38;;
73084;SDS011;62974;49.460;10.892;2023-05-02T04:03:30;5.90;;;3.63;;
73084;SDS011;62974;49.460;10.892;2023-05-02T04:05:57;6.70;;;3.67;;
73084;SDS011;62974;49.460;10.892;2023-05-02T04:08:25;7.75;;;4.00;;
73084;SDS011;62974;49.460;10.892;2023-05-02T04:10:52;8.48;;;4.20;;
73084;SDS011;62974;49.460;10.892;2023-05-02T04:13:21;7.30;;;4.63;;
73084;SDS011;62974;49.460;10.892;2023-05-02T04:15:48;7.18;;;4.75;;
73084;SDS011;62974;49.460;10.892;2023-05-02T04:18:16;7.55;;;5.07;;
73084;SDS011;62974;49.460;10.892;2023-05-02T04:20:43;8.15;;;4.35;;
73084;SDS011;62974;49.460;10.892;2023-05-02T04:23:11;8.07;;;3.92;;
73084;SDS011;62974;49.460;10.892;2023-05-02T04:25:39;7.90;;;4.03;;
73084;SDS011;62974;49.460;10.892;2023-05-02T04:28:06;7.45;;;4.38;;
73084;SDS011;62974;49.460;10.892;2023-05-02T04:30:36;7.55;;;3.85;;
73084;SDS011;62974;49.460;10.892;2023-05-02T04:33:03;8.43;;;4.30;;
73084;SDS011;62974;49.460;10.892;2023-05-02T04:35:31;10.57;;;4.82;;
73084;SDS011;62974;49.460;10.892;2023-05-02T04:37:58;9.27;;;4.85;;
73084;SDS011;62974;49.460;10.892;2023-05-02T04:40:26;7.88;;;4.53;;
73084;SDS011;62974;49.460;10.892;2023-05-02T04:42:53;8.95;;;4.50;;
73084;SDS011;62974;49.460;10.892;2023-05-02T04:45:21;7.93;;;4.28;;
73084;SDS011;62974;49.460;10.892;2023-05-02T04:47:49;7.82;;;4.85;;
73084;SDS011;62974;49.460;10.892;2023-05-02T04:50:17;9.52;;;5.05;;
73084;SDS011;62974;49.460;10.892;2023-05-02T04:52:45;9.43;;;4.50;;
73084;SDS011;62974;49.460;10.892;2023-05-02T04:55:12;8.40;;;4.90;;
73084;SDS011;62974;49.460;10.892;2023-05-02T04:57:40;9.63;;;4.75;;
73084;SDS011;62974;49.460;10.892;2023-05-02T05:00:07;9.65;;;4.95;;
73084;SDS011;62974;49.460;10.892;2023-05-02T05:02:35;8.77;;;4.20;;
73084;SDS011;62974;49.460;10.892;2023-05-02T05:05:05;7.90;;;4.38;;
73084;SDS011;62974;49.460;10.892;2023-05-02T05:07:33;9.18;;;4.65;;
73084;SDS011;62974;49.460;10.892;2023-05-02T05:10:01;7.78;;;4.80;;
73084;SDS011;62974;49.460;10.892;2023-05-02T05:12:29;11.20;;;5.07;;
73084;SDS011;62974;49.460;10.892;2023-05-02T05:14:56;9.35;;;4.95;;
73084;SDS011;62974;49.460;10.892;2023-05-02T05:17:24;9.82;;;4.90;;
73084;SDS011;62974;49.460;10.892;2023-05-02T05:19:51;10.07;;;4.82;;
73084;SDS011;62974;49.460;10.892;2023-05-02T05:22:20;10.48;;;5.18;;
73084;SDS011;62974;49.460;10.892;2023-05-02T05:24:51;8.10;;;4.47;;
73084;SDS011;62974;49.460;10.892;2023-05-02T05:27:19;7.13;;;4.32;;
73084;SDS011;62974;49.460;10.892;2023-05-02T05:29:48;8.45;;;4.93;;
73084;SDS011;62974;49.460;10.892;2023-05-02T05:32:16;7.75;;;4.35;;
73084;SDS011;62974;49.460;10.892;2023-05-02T05:34:43;9.63;;;4.43;;
73084;SDS011;62974;49.460;10.892;2023-05-02T05:37:11;8.43;;;5.03;;
73084;SDS011;62974;49.460;10.892;2023-05-02T05:39:40;9.85;;;4.93;;
73084;SDS011;62974;49.460;10.892;2023-05-02T05:42:07;9.98;;;5.50;;
73084;SDS011;62974;49.460;10.892;2023-05-02T05:44:35;8.60;;;4.85;;
73084;SDS011;62974;49.460;10.892;2023-05-02T05:47:02;9.60;;;5.43;;
73084;SDS011;62974;49.460;10.892;2023-05-02T05:49:30;10.48;;;4.97;;
73084;SDS011;62974;49.460;10.892;2023-05-02T05:51:57;8.75;;;5.53;;
73084;SDS011;62974;49.460;10.892;2023-05-02T05:54:25;11.88;;;5.15;;
73084;SDS011;62974;49.460;10.892;2023-05-02T05:56:54;9.13;;;5.25;;
73084;SDS011;62974;49.460;10.892;2023-05-02T05:59:21;11.82;;;5.65;;
73084;SDS011;62974;49.460;10.892;2023-05-02T06:01:49;8.48;;;5.05;;
73084;SDS011;62974;49.460;10.892;2023-05-02T06:04:16;10.40;;;5.57;;
73084;SDS011;62974;49.460;10.892;2023-05-02T06:06:44;10.98;;;4.82;;
73084;SDS011;62974;49.460;10.892;2023-05-02T06:09:12;11.70;;;6.07;;
73084;SDS011;62974;49.460;10.892;2023-05-02T06:11:39;12.63;;;7.03;;
73084;SDS011;62974;49.460;10.892;2023-05-02T06:14:08;10.60;;;6.03;;
73084;SDS011;62974;49.460;10.892;2023-05-02T06:16:35;15.85;;;6.53;;
73084;SDS011;62974;49.460;10.892;2023-05-02T06:19:03;11.27;;;6.72;;
73084;SDS011;62974;49.460;10.892;2023-05-02T06:21:31;13.52;;;7.25;;
73084;SDS011;62974;49.460;10.892;2023-05-02T06:23:58;12.68;;;6.53;;
73084;SDS011;62974;49.460;10.892;2023-05-02T06:26:26;15.07;;;7.30;;
73084;SDS011;62974;49.460;10.892;2023-05-02T06:28:53;11.02;;;6.05;;
73084;SDS011;62974;49.460;10.892;2023-05-02T06:31:22;14.52;;;6.70;;
73084;SDS011;62974;49.460;10.892;2023-05-02T06:33:50;13.93;;;7.35;;
73084;SDS011;62974;49.460;10.892;2023-05-02T06:36:18;11.45;;;7.45;;
73084;SDS011;62974;49.460;10.892;2023-05-02T06:38:45;12.10;;;7.57;;
73084;SDS011;62974;49.460;10.892;2023-05-02T06:41:13;12.55;;;7.57;;
73084;SDS011;62974;49.460;10.892;2023-05-02T06:43:43;13.20;;;7.07;;
73084;SDS011;62974;49.460;10.892;2023-05-02T06:46:11;15.55;;;8.25;;
73084;SDS011;62974;49.460;10.892;2023-05-02T06:48:40;12.75;;;7.38;;
73084;SDS011;62974;49.460;10.892;2023-05-02T06:51:08;14.27;;;7.38;;
73084;SDS011;62974;49.460;10.892;2023-05-02T06:53:36;11.63;;;6.15;;
73084;SDS011;62974;49.460;10.892;2023-05-02T06:56:03;13.63;;;7.00;;
73084;SDS011;62974;49.460;10.892;2023-05-02T06:58:31;11.48;;;6.78;;
73084;SDS011;62974;49.460;10.892;2023-05-02T07:00:59;16.50;;;8.38;;
73084;SDS011;62974;49.460;10.892;2023-05-02T07:03:26;12.95;;;6.47;;
73084;SDS011;62974;49.460;10.892;2023-05-02T07:05:55;13.63;;;6.93;;
73084;SDS011;62974;49.460;10.892;2023-05-02T07:08:23;13.05;;;7.05;;
73084;SDS011;62974;49.460;10.892;2023-05-02T07:10:51;14.73;;;7.75;;
73084;SDS011;62974;49.460;10.892;2023-05-02T07:13:18;11.30;;;6.35;;
73084;SDS011;62974;49.460;10.892;2023-05-02T07:15:45;11.90;;;6.72;;
73084;SDS011;62974;49.460;10.892;2023-05-02T07:18:13;11.95;;;6.68;;
73084;SDS011;62974;49.460;10.892;2023-05-02T07:20:41;14.20;;;6.35;;
73084;SDS011;62974;49.460;10.892;2023-05-02T07:23:09;13.27;;;7.13;;
73084;SDS011;62974;49.460;10.892;2023-05-02T07:25:37;15.27;;;6.55;;
73084;SDS011;62974;49.460;10.892;2023-05-02T07:28:05;11.57;;;5.90;;
73084;SDS011;62974;49.460;10.892;2023-05-02T07:30:32;16.25;;;7.95;;
73084;SDS011;62974;49.460;10.892;2023-05-02T07:33:00;11.77;;;6.55;;
73084;SDS011;62974;49.460;10.892;2023-05-02T07:35:28;11.70;;;6.30;;
73084;SDS011;62974;49.460;10.892;2023-05-02T07:37:55;12.68;;;6.68;;
73084;SDS011;62974;49.460;10.892;2023-05-02T07:40:24;12.25;;;6.93;;
73084;SDS011;62974;49.460;10.892;2023-05-02T07:42:53;13.13;;;5.80;;
73084;SDS011;62974;49.460;10.892;2023-05-02T07:45:21;14.43;;;6.78;;
73084;SDS011;62974;49.460;10.892;2023-05-02T07:47:48;10.52;;;5.93;;
73084;SDS011;62974;49.460;10.892;2023-05-02T07:50:16;12.77;;;5.68;;
73084;SDS011;62974;49.460;10.892;2023-05-02T07:52:43;10.48;;;6.00;;
73084;SDS011;62974;49.460;10.892;2023-05-02T07:55:11;11.55;;;6.13;;
73084;SDS011;62974;49.460;10.892;2023-05-02T07:57:40;11.95;;;6.70;;
73084;SDS011;62974;49.460;10.892;2023-05-02T08:00:08;9.38;;;5.28;;
73084;SDS011;62974;49.460;10.892;2023-05-02T08:02:36;10.63;;;6.57;;
73084;SDS011;62974;49.460;10.892;2023-05-02T08:05:04;12.10;;;6.45;;
73084;SDS011;62974;49.460;10.892;2023-05-02T08:07:33;12.77;;;5.88;;
73084;SDS011;62974;49.460;10.892;2023-05-02T08:10:02;10.90;;;5.97;;
73084;SDS011;62974;49.460;10.892;2023-05-02T08:12:30;13.23;;;7.00;;
73084;SDS011;62974;49.460;10.892;2023-05-02T08:14:59;12.63;;;6.32;;
73084;SDS011;62974;49.460;10.892;2023-05-02T08:17:31;10.93;;;6.28;;
73084;SDS011;62974;49.460;10.892;2023-05-02T08:19:59;11.05;;;5.47;;
73084;SDS011;62974;49.460;10.892;2023-05-02T08:22:27;11.45;;;6.22;;
73084;SDS011;62974;49.460;10.892;2023-05-02T08:24:55;10.85;;;5.85;;
73084;SDS011;62974;49.460;10.892;2023-05-02T08:27:22;11.52;;;5.75;;
73084;SDS011;62974;49.460;10.892;2023-05-02T08:29:50;10.80;;;5.88;;
73084;SDS011;62974;49.460;10.892;2023-05-02T08:32:19;9.88;;;5.90;;
73084;SDS011;62974;49.460;10.892;2023-05-02T08:34:47;15.35;;;6.93;;
73084;SDS011;62974;49.460;10.892;2023-05-02T08:37:15;12.00;;;5.22;;
73084;SDS011;62974;49.460;10.892;2023-05-02T08:39:43;11.38;;;5.75;;
73084;SDS011;62974;49.460;10.892;2023-05-02T08:42:10;10.00;;;5.50;;
73084;SDS011;62974;49.460;10.892;2023-05-02T08:44:38;10.00;;;5.85;;
73084;SDS011;62974;49.460;10.892;2023-05-02T08:47:06;11.02;;;5.75;;
73084;SDS011;62974;49.460;10.892;2023-05-02T08:49:38;8.20;;;5.18;;
73084;SDS011;62974;49.460;10.892;2023-05-02T08:52:07;9.82;;;5.78;;
73084;SDS011;62974;49.460;10.892;2023-05-02T08:54:37;9.90;;;5.55;;
73084;SDS011;62974;49.460;10.892;2023-05-02T08:57:04;10.10;;;5.10;;
73084;SDS011;62974;49.460;10.892;2023-05-02T08:59:32;5.22;;;3.50;;
73084;SDS011;62974;49.460;10.892;2023-05-02T09:02:04;6.20;;;4.05;;
73084;SDS011;62974;49.460;10.892;2023-05-02T09:04:44;9.70;;;4.53;;
73084;SDS011;62974;49.460;10.892;2023-05-02T09:09:44;9.10;;;4.07;;
73084;SDS011;62974;49.460;10.892;2023-05-02T09:12:12;7.82;;;3.55;;
73084;SDS011;62974;49.460;10.892;2023-05-02T09:14:42;10.20;;;4.68;;
73084;SDS011;62974;49.460;10.892;2023-05-02T09:17:09;7.03;;;3.70;;
73084;SDS011;62974;49.460;10.892;2023-05-02T09:19:37;9.15;;;4.78;;
73084;SDS011;62974;49.460;10.892;2023-05-02T09:22:06;7.65;;;5.07;;
73084;SDS011;62974;49.460;10.892;2023-05-02T09:24:33;8.38;;;4.53;;
73084;SDS011;62974;49.460;10.892;2023-05-02T09:27:01;8.27;;;4.85;;
73084;SDS011;62974;49.460;10.892;2023-05-02T09:29:30;9.27;;;5.88;;
73084;SDS011;62974;49.460;10.892;2023-05-02T09:32:03;7.60;;;4.45;;
73084;SDS011;62974;49.460;10.892;2023-05-02T09:34:32;9.45;;;5.35;;
73084;SDS011;62974;49.460;10.892;2023-05-02T09:37:02;8.43;;;4.88;;
73084;SDS011;62974;49.460;10.892;2023-05-02T09:39:32;4.50;;;3.17;;
73084;SDS011;62974;49.460;10.892;2023-05-02T09:41:59;3.25;;;2.42;;
73084;SDS011;62974;49.460;10.892;2023-05-02T09:44:35;8.15;;;5.22;;
73084;SDS011;62974;49.460;10.892;2023-05-02T09:47:04;9.60;;;5.82;;
73084;SDS011;62974;49.460;10.892;2023-05-02T09:49:38;11.65;;;7.05;;
73084;SDS011;62974;49.460;10.892;2023-05-02T09:52:11;10.38;;;5.63;;
73084;SDS011;62974;49.460;10.892;2023-05-02T09:54:41;9.98;;;5.55;;
73084;SDS011;62974;49.460;10.892;2023-05-02T09:57:11;11.32;;;5.40;;
73084;SDS011;62974;49.460;10.892;2023-05-02T09:59:39;11.77;;;6.07;;
73084;SDS011;62974;49.460;10.892;2023-05-02T10:02:07;7.55;;;4.57;;
73084;SDS011;62974;49.460;10.892;2023-05-02T10:04:37;7.95;;;4.93;;
73084;SDS011;62974;49.460;10.892;2023-05-02T10:07:06;12.77;;;5.50;;
73084;SDS011;62974;49.460;10.892;2023-05-02T10:09:36;8.98;;;5.25;;
73084;SDS011;62974;49.460;10.892;2023-05-02T10:12:11;7.18;;;4.63;;
73084;SDS011;62974;49.460;10.892;2023-05-02T10:14:42;8.50;;;5.13;;
73084;SDS011;62974;49.460;10.892;2023-05-02T10:17:15;10.07;;;4.70;;
73084;SDS011;62974;49.460;10.892;2023-05-02T10:19:50;7.82;;;5.13;;
73084;SDS011;62974;49.460;10.892;2023-05-02T10:22:22;8.68;;;5.18;;
73084;SDS011;62974;49.460;10.892;2023-05-02T10:24:50;7.07;;;4.57;;
73084;SDS011;62974;49.460;10.892;2023-05-02T10:27:21;8.10;;;5.28;;
73084;SDS011;62974;49.460;10.892;2023-05-02T10:29:48;10.30;;;4.97;;
73084;SDS011;62974;49.460;10.892;2023-05-02T10:32:17;9.55;;;4.65;;
73084;SDS011;62974;49.460;10.892;2023-05-02T10:34:46;7.68;;;3.83;;
73084;SDS011;62974;49.460;10.892;2023-05-02T10:37:16;8.25;;;5.45;;
73084;SDS011;62974;49.460;10.892;2023-05-02T10:39:45;6.60;;;4.32;;
73084;SDS011;62974;49.460;10.892;2023-05-02T10:42:13;6.97;;;4.43;;
73084;SDS011;62974;49.460;10.892;2023-05-02T10:44:42;8.07;;;5.18;;
73084;SDS011;62974;49.460;10.892;2023-05-02T10:47:19;7.05;;;4.95;;
73084;SDS011;62974;49.460;10.892;2023-05-02T10:49:48;9.05;;;4.90;;
73084;SDS011;62974;49.460;10.892;2023-05-02T10:52:27;7.90;;;4.70;;
73084;SDS011;62974;49.460;10.892;2023-05-02T11:00:50;8.00;;;4.65;;
73084;SDS011;62974;49.460;10.892;2023-05-02T11:06:20;7.15;;;4.60;;
73084;SDS011;62974;49.460;10.892;2023-05-02T11:08:48;8.90;;;4.38;;
73084;SDS011;62974;49.460;10.892;2023-05-02T11:14:06;8.85;;;4.97;;
73084;SDS011;62974;49.460;10.892;2023-05-02T11:22:50;7.43;;;4.22;;
73084;SDS011;62974;49.460;10.892;2023-05-02T11:28:03;8.55;;;4.32;;
73084;SDS011;62974;49.460;10.892;2023-05-02T11:30:39;8.45;;;5.60;;
73084;SDS011;62974;49.460;10.892;2023-05-02T11:33:19;8.02;;;5.18;;
73084;SDS011;62974;49.460;10.892;2023-05-02T11:35:47;6.80;;;3.78;;
73084;SDS011;62974;49.460;10.892;2023-05-02T11:38:15;7.82;;;4.93;;
73084;SDS011;62974;49.460;10.892;2023-05-02T11:40:49;7.28;;;4.90;;
73084;SDS011;62974;49.460;10.892;2023-05-02T11:43:21;9.32;;;4.90;;
73084;SDS011;62974;49.460;10.892;2023-05-02T11:45:50;6.40;;;4.00;;
73084;SDS011;62974;49.460;10.892;2023-05-02T11:48:20;11.07;;;6.00;;
73084;SDS011;62974;49.460;10.892;2023-05-02T11:50:50;7.45;;;4.35;;
73084;SDS011;62974;49.460;10.892;2023-05-02T11:53:19;3.45;;;2.33;;
73084;SDS011;62974;49.460;10.892;2023-05-02T11:55:48;6.88;;;4.93;;
73084;SDS011;62974;49.460;10.892;2023-05-02T11:58:17;8.38;;;4.63;;
73084;SDS011;62974;49.460;10.892;2023-05-02T12:00:46;6.72;;;4.85;;
73084;SDS011;62974;49.460;10.892;2023-05-02T12:03:23;6.55;;;4.57;;
73084;SDS011;62974;49.460;10.892;2023-05-02T12:05:53;7.32;;;3.78;;
73084;SDS011;62974;49.460;10.892;2023-05-02T12:08:21;4.80;;;2.80;;
73084;SDS011;62974;49.460;10.892;2023-05-02T12:10:52;3.88;;;2.05;;
73084;SDS011;62974;49.460;10.892;2023-05-02T12:13:21;1.58;;;1.13;;
73084;SDS011;62974;49.460;10.892;2023-05-02T12:15:50;4.47;;;2.10;;
73084;SDS011;62974;49.460;10.892;2023-05-02T12:18:19;3.70;;;1.90;;
73084;SDS011;62974;49.460;10.892;2023-05-02T12:20:51;2.88;;;1.90;;
73084;SDS011;62974;49.460;10.892;2023-05-02T12:23:20;3.65;;;2.22;;
73084;SDS011;62974;49.460;10.892;2023-05-02T12:25:49;2.67;;;2.03;;
73084;SDS011;62974;49.460;10.892;2023-05-02T12:28:17;3.22;;;2.22;;
73084;SDS011;62974;49.460;10.892;2023-05-02T12:30:46;4.15;;;2.30;;
73084;SDS011;62974;49.460;10.892;2023-05-02T12:33:14;4.85;;;2.67;;
73084;SDS011;62974;49.460;10.892;2023-05-02T12:35:43;4.50;;;2.78;;
73084;SDS011;62974;49.460;10.892;2023-05-02T12:38:15;5.60;;;3.35;;
73084;SDS011;62974;49.460;10.892;2023-05-02T12:40:47;4.65;;;2.70;;
73084;SDS011;62974;49.460;10.892;2023-05-02T12:43:16;6.53;;;3.50;;
73084;SDS011;62974;49.460;10.892;2023-05-02T12:45:44;9.98;;;4.82;;
73084;SDS011;62974;49.460;10.892;2023-05-02T12:48:20;7.43;;;4.30;;
73084;SDS011;62974;49.460;10.892;2023-05-02T12:50:49;8.43;;;4.18;;
73084;SDS011;62974;49.460;10.892;2023-05-02T12:53:22;7.30;;;4.78;;
73084;SDS011;62974;49.460;10.892;2023-05-02T12:56:04;8.48;;;4.97;;
73084;SDS011;62974;49.460;10.892;2023-05-02T12:58:38;5.65;;;4.10;;
73084;SDS011;62974;49.460;10.892;2023-05-02T13:01:07;8.20;;;4.20;;
73084;SDS011;62974;49.460;10.892;2023-05-02T13:03:35;8.80;;;4.53;;
73084;SDS011;62974;49.460;10.892;2023-05-02T13:06:04;9.55;;;4.97;;
73084;SDS011;62974;49.460;10.892;2023-05-02T13:08:33;8.73;;;4.45;;
73084;SDS011;62974;49.460;10.892;2023-05-02T13:11:02;8.27;;;4.72;;
73084;SDS011;62974;49.460;10.892;2023-05-02T13:13:30;7.90;;;4.20;;
73084;SDS011;62974;49.460;10.892;2023-05-02T13:15:57;10.60;;;5.55;;
73084;SDS011;62974;49.460;10.892;2023-05-02T13:18:25;10.05;;;5.00;;
73084;SDS011;62974;49.460;10.892;2023-05-02T13:20:53;8.02;;;4.63;;
73084;SDS011;62974;49.460;10.892;2023-05-02T13:23:21;7.63;;;4.22;;
73084;SDS011;62974;49.460;10.892;2023-05-02T13:25:49;9.82;;;5.13;;
73084;SDS011;62974;49.460;10.892;2023-05-02T13:28:17;12.43;;;5.68;;
73084;SDS011;62974;49.460;10.892;2023-05-02T13:30:44;9.10;;;5.13;;
73084;SDS011;62974;49.460;10.892;2023-05-02T13:33:12;9.50;;;4.70;;
73084;SDS011;62974;49.460;10.892;2023-05-02T13:35:39;6.05;;;3.72;;
73084;SDS011;62974;49.460;10.892;2023-05-02T13:38:07;10.88;;;4.47;;
73084;SDS011;62974;49.460;10.892;2023-05-02T13:40:34;7.93;;;5.13;;
73084;SDS011;62974;49.460;10.892;2023-05-02T13:43:03;8.85;;;4.80;;
73084;SDS011;62974;49.460;10.892;2023-05-02T13:45:31;6.60;;;4.00;;
73084;SDS011;62974;49.460;10.892;2023-05-02T13:47:59;6.65;;;3.58;;
73084;SDS011;62974;49.460;10.892;2023-05-02T13:50:26;7.35;;;3.67;;
73084;SDS011;62974;49.460;10.892;2023-05-02T13:52:54;6.20;;;3.70;;
73084;SDS011;62974;49.460;10.892;2023-05-02T13:55:21;5.22;;;3.13;;
73084;SDS011;62974;49.460;10.892;2023-05-02T13:57:49;6.57;;;4.10;;
73084;SDS011;62974;49.460;10.892;2023-05-02T14:00:18;4.57;;;2.80;;
73084;SDS011;62974;49.460;10.892;2023-05-02T14:02:46;8.00;;;4.30;;
73084;SDS011;62974;49.460;10.892;2023-05-02T14:05:14;6.00;;;3.25;;
73084;SDS011;62974;49.460;10.892;2023-05-02T14:07:41;6.00;;;3.50;;
73084;SDS011;62974;49.460;10.892;2023-05-02T14:10:09;6.10;;;3.85;;
73084;SDS011;62974;49.460;10.892;2023-05-02T14:12:36;4.32;;;2.65;;
73084;SDS011;62974;49.460;10.892;2023-05-02T14:15:04;4.72;;;2.47;;
73084;SDS011;62974;49.460;10.892;2023-05-02T14:17:34;4.32;;;2.63;;
73084;SDS011;62974;49.460;10.892;2023-05-02T14:20:01;3.75;;;2.58;;
73084;SDS011;62974;49.460;10.892;2023-05-02T14:22:30;5.07;;;2.45;;
73084;SDS011;62974;49.460;10.892;2023-05-02T14:24:57;5.13;;;2.25;;
73084;SDS011;62974;49.460;10.892;2023-05-02T14:27:24;3.33;;;2.08;;
73084;SDS011;62974;49.460;10.892;2023-05-02T14:29:52;3.05;;;1.58;;
73084;SDS011;62974;49.460;10.892;2023-05-02T14:32:20;2.90;;;1.65;;
73084;SDS011;62974;49.460;10.892;2023-05-02T14:34:49;2.42;;;1.45;;
73084;SDS011;62974;49.460;10.892;2023-05-02T14:37:16;2.60;;;1.63;;
73084;SDS011;62974;49.460;10.892;2023-05-02T14:39:44;3.38;;;1.40;;
73084;SDS011;62974;49.460;10.892;2023-05-02T14:42:23;2.63;;;1.70;;
73084;SDS011;62974;49.460;10.892;2023-05-02T14:44:50;2.15;;;1.38;;
73084;SDS011;62974;49.460;10.892;2023-05-02T14:47:18;2.83;;;1.60;;
73084;SDS011;62974;49.460;10.892;2023-05-02T14:49:46;2.65;;;1.60;;
73084;SDS011;62974;49.460;10.892;2023-05-02T14:52:14;2.90;;;1.52;;
73084;SDS011;62974;49.460;10.892;2023-05-02T14:54:42;2.80;;;1.70;;
73084;SDS011;62974;49.460;10.892;2023-05-02T14:57:09;3.25;;;1.67;;
73084;SDS011;62974;49.460;10.892;2023-05-02T14:59:37;3.35;;;1.88;;
73084;SDS011;62974;49.460;10.892;2023-05-02T15:02:05;3.58;;;2.00;;
73084;SDS011;62974;49.460;10.892;2023-05-02T15:04:33;2.30;;;1.40;;